Terminal Aerodrome Forecast
Issued by NWS St Louis, MO

Home | Current Version | Previous Version | Text Only | Print | Product List | Glossary On
Versions: 1 2 3 4 5 6 7 8 9 10 11 12 13 14 15 16 17 18 19 20 21 22 23 24 25 26 27 28 29 30
000
FTUS43 KLSX 211135
TAFSTL
TAF
KSTL 211135Z 2112/2218 16007KT P6SM OVC025
     FM211800 16012KT P6SM BKN030
     FM220600 16013G21KT 5SM -SHRA VCTS OVC025CB
     FM221200 17009KT P6SM BKN030
     FM221500 17012KT P6SM SCT040=

USA.gov is the U.S. government's official web portal to all federal, state and local government web resources and services.